Overview Statistics Trail Chart Weather Telemetry Raw packets
 

This is the latest recevied weather packets stored in our database for station/object OE3AOG-10. If no packets are shown the sender has not sent any weather packets the latest 10 day(s).

<< 4 5 6 7 8 9 10 >>
Time Temp. Humidity Pressure Rain* Wind** Luminosity Snow
1788093717 32.78° C 25% 1017.6 hPa - - - -
1788090116 34.44° C 28% 1018 hPa - - - -
1788086516 32.78° C 31% 1018.7 hPa - - - -
1788082916 30.56° C 35% 1019.1 hPa - - - -
1788079315 27.78° C 41% 1019.4 hPa - - - -
1788075715 25° C 48% 1019.4 hPa - - - -
1788072115 22.22° C 55% 1019 hPa - - - -
1788068514 18.33° C 61% 1018.9 hPa - - - -
1788064913 16.11° C 62% 1018.8 hPa - - - -
1788061313 16.11° C 60% 1018.3 hPa - - - -
1788057713 16.67° C 58% 1018.1 hPa - - - -
1788054113 17.78° C 55% 1018.1 hPa - - - -
1788050513 18.33° C 54% 1018.1 hPa - - - -
1788046913 18.89° C 53% 1018.1 hPa - - - -
1788043312 18.89° C 51% 1018.2 hPa - - - -
1788039712 19.44° C 49% 1018.3 hPa - - - -
1788036112 20° C 47% 1018.3 hPa - - - -
1788032512 21.11° C 43% 1018.5 hPa - - - -
1788028913 22.78° C 40% 1018.3 hPa - - - -
1788025313 23.33° C 38% 1017.6 hPa - - - -
1788021713 26.11° C 32% 1017.5 hPa - - - -
1788018113 26.67° C 31% 1017.8 hPa - - - -
1788014513 27.22° C 30% 1018 hPa - - - -
1788010912 28.89° C 32% 1018.5 hPa - - - -
1788007313 28.89° C 34% 1018.8 hPa - - - -

* Rain since midnight (hover to see other rain measurements)
** Current wind speed in m/s (hover to see current wind gust speed)